createdAt,value
2022-11-26T00:02:23.549Z,6.20
2022-11-26T00:04:54.156Z,6.20
2022-11-26T00:07:27.033Z,6.20
2022-11-26T00:09:55.705Z,6.10
2022-11-26T00:12:25.906Z,6.10
2022-11-26T00:14:54.604Z,6.10
2022-11-26T00:17:23.009Z,6.10
2022-11-26T00:19:52.526Z,6.10
2022-11-26T00:22:27.649Z,6.10
2022-11-26T00:24:56.479Z,6.10
2022-11-26T00:27:27.019Z,6.00
2022-11-26T00:29:55.717Z,6.00
2022-11-26T00:32:27.286Z,6.00
2022-11-26T00:34:56.909Z,5.90
2022-11-26T00:37:29.192Z,5.80
2022-11-26T00:40:00.942Z,5.80
2022-11-26T00:42:28.930Z,5.80
2022-11-26T00:44:56.927Z,5.80
2022-11-26T00:47:24.947Z,5.70
2022-11-26T00:49:52.920Z,5.70
2022-11-26T00:52:29.681Z,5.90
2022-11-26T00:54:57.733Z,5.80
2022-11-26T00:57:25.709Z,5.90
2022-11-26T00:59:53.743Z,5.90
2022-11-26T01:02:21.761Z,5.90
2022-11-26T01:04:49.795Z,5.90
2022-11-26T01:07:17.933Z,6.00
2022-11-26T01:09:48.582Z,5.90
2022-11-26T01:12:16.924Z,5.90
2022-11-26T01:14:45.421Z,5.90
2022-11-26T01:17:13.568Z,5.90
2022-11-26T01:19:41.660Z,6.00
2022-11-26T01:22:19.971Z,6.00
2022-11-26T01:24:50.083Z,6.00
2022-11-26T01:27:20.436Z,6.00
2022-11-26T01:29:48.767Z,5.90
2022-11-26T01:32:16.831Z,5.90
2022-11-26T01:34:44.838Z,6.00
2022-11-26T01:37:14.431Z,6.00
2022-11-26T01:39:42.753Z,6.00
2022-11-26T01:42:25.651Z,6.00
2022-11-26T01:44:53.951Z,6.10
2022-11-26T01:47:24.474Z,6.10
2022-11-26T01:50:29.694Z,6.10
2022-11-26T01:53:00.938Z,6.00
2022-11-26T01:55:35.827Z,6.10
2022-11-26T01:58:08.590Z,6.10
2022-11-26T02:00:36.744Z,6.10
2022-11-26T02:03:05.870Z,6.00
2022-11-26T02:05:39.658Z,6.00
2022-11-26T02:08:08.616Z,6.00
2022-11-26T02:10:36.770Z,6.10
2022-11-26T02:13:06.936Z,6.20
2022-11-26T02:15:44.835Z,6.20
2022-11-26T02:18:13.529Z,6.20
2022-11-26T02:20:52.008Z,6.20
2022-11-26T02:23:48.836Z,6.20
2022-11-26T02:26:58.597Z,6.10
2022-11-26T02:29:44.855Z,6.10
2022-11-26T02:32:18.865Z,6.10
2022-11-26T02:34:56.045Z,6.10
2022-11-26T02:37:28.730Z,6.10
2022-11-26T02:39:58.355Z,6.00
2022-11-26T02:42:28.365Z,6.00
2022-11-26T02:45:00.935Z,6.00
2022-11-26T02:47:30.633Z,6.20
2022-11-26T02:50:01.655Z,6.10
2022-11-26T02:52:30.777Z,6.20
2022-11-26T02:54:59.469Z,6.10
2022-11-26T02:57:31.613Z,6.10
2022-11-26T03:00:01.281Z,6.10
2022-11-26T03:02:35.745Z,6.20
2022-11-26T03:05:04.684Z,6.20
2022-11-26T03:07:35.642Z,6.20
2022-11-26T03:10:04.891Z,6.20
2022-11-26T03:12:32.944Z,6.10
2022-11-26T03:15:02.781Z,6.10
2022-11-26T03:17:30.797Z,6.10
2022-11-26T03:19:58.904Z,6.20
2022-11-26T03:22:26.964Z,6.20
2022-11-26T03:24:54.981Z,6.20
2022-11-26T03:27:23.040Z,6.10
2022-11-26T03:29:51.000Z,6.00
2022-11-26T03:32:20.388Z,6.00
2022-11-26T03:34:48.367Z,6.00
2022-11-26T03:37:16.656Z,6.00
2022-11-26T03:39:44.768Z,5.90
2022-11-26T03:42:12.716Z,5.80
2022-11-26T03:44:40.856Z,5.80
2022-11-26T03:47:08.986Z,5.80
2022-11-26T03:49:38.412Z,5.80
2022-11-26T03:52:06.788Z,5.80
2022-11-26T03:54:34.803Z,5.90
2022-11-26T03:57:03.002Z,5.90
2022-11-26T03:59:31.068Z,5.90
2022-11-26T04:01:59.143Z,5.80
2022-11-26T04:04:27.276Z,5.80
2022-11-26T04:06:57.178Z,5.80
2022-11-26T04:09:25.342Z,5.80
2022-11-26T04:11:53.298Z,5.80
2022-11-26T04:14:21.295Z,5.80
2022-11-26T04:16:49.458Z,5.80
2022-11-26T04:19:17.576Z,5.70
2022-11-26T04:21:45.554Z,5.80
2022-11-26T04:24:14.870Z,5.80
2022-11-26T04:26:42.922Z,5.90
2022-11-26T04:29:10.926Z,6.00
2022-11-26T04:31:39.033Z,6.00
2022-11-26T04:34:07.098Z,6.00
2022-11-26T04:36:35.225Z,6.00
2022-11-26T04:39:03.705Z,6.00
2022-11-26T04:41:33.107Z,5.90
2022-11-26T04:44:01.087Z,6.00
2022-11-26T04:46:29.061Z,6.10
2022-11-26T04:48:57.017Z,6.10
2022-11-26T04:51:25.082Z,6.00
2022-11-26T04:53:55.755Z,6.00
2022-11-26T04:56:24.229Z,5.90
2022-11-26T04:58:53.727Z,5.90
2022-11-26T05:01:21.831Z,5.90
2022-11-26T05:03:49.835Z,5.90
2022-11-26T05:06:18.064Z,5.90
2022-11-26T05:08:46.066Z,6.00
2022-11-26T05:11:14.090Z,6.00
2022-11-26T05:13:42.028Z,6.00
2022-11-26T05:16:11.813Z,6.10
2022-11-26T05:18:39.895Z,6.10
2022-11-26T05:21:08.189Z,6.00
2022-11-26T05:23:36.252Z,6.10
2022-11-26T05:26:04.320Z,6.10
2022-11-26T05:28:32.307Z,6.00
2022-11-26T05:31:01.692Z,6.00
2022-11-26T05:33:31.406Z,6.00
2022-11-26T05:35:59.386Z,6.10
2022-11-26T05:38:28.737Z,6.00
2022-11-26T05:40:56.731Z,6.00
2022-11-26T05:43:25.188Z,6.00
2022-11-26T05:45:53.229Z,6.00
2022-11-26T05:48:21.277Z,6.10
2022-11-26T05:50:57.201Z,6.10
2022-11-26T05:53:25.424Z,6.10
2022-11-26T05:55:53.447Z,6.00
2022-11-26T05:58:21.422Z,6.00
2022-11-26T06:00:49.492Z,6.00
2022-11-26T06:03:20.322Z,6.00
2022-11-26T06:05:50.156Z,6.00
2022-11-26T06:08:18.290Z,6.00
2022-11-26T06:10:46.335Z,6.00
2022-11-26T06:13:14.482Z,5.90
2022-11-26T06:15:42.474Z,5.90
2022-11-26T06:18:10.541Z,5.90
2022-11-26T06:20:39.284Z,5.90
2022-11-26T06:23:08.677Z,5.90
2022-11-26T06:25:37.358Z,6.00
2022-11-26T06:28:05.681Z,6.10
2022-11-26T06:30:33.896Z,6.10
2022-11-26T06:33:01.986Z,6.10
2022-11-26T06:35:30.008Z,6.10
2022-11-26T06:37:57.921Z,6.20
2022-11-26T06:40:27.243Z,6.10
2022-11-26T06:42:57.035Z,6.10
2022-11-26T06:45:25.581Z,6.20
2022-11-26T06:47:53.696Z,6.20
2022-11-26T06:50:23.825Z,6.20
2022-11-26T06:52:53.253Z,6.20
2022-11-26T06:55:21.834Z,6.20
2022-11-26T06:57:52.401Z,6.10
2022-11-26T07:00:21.956Z,6.10
2022-11-26T07:02:52.722Z,6.00
2022-11-26T07:05:20.845Z,6.10
2022-11-26T07:07:48.870Z,6.10
2022-11-26T07:10:17.278Z,6.10
2022-11-26T07:12:45.326Z,6.10
2022-11-26T07:15:14.745Z,6.20
2022-11-26T07:17:42.771Z,6.30
2022-11-26T07:20:11.436Z,6.20
2022-11-26T07:22:39.472Z,6.20
2022-11-26T07:25:12.282Z,6.30
2022-11-26T07:27:41.187Z,6.40
2022-11-26T07:30:10.581Z,6.40
2022-11-26T07:32:40.059Z,6.50
2022-11-26T07:35:08.555Z,6.50
2022-11-26T07:37:36.894Z,6.60
2022-11-26T07:40:06.335Z,6.60
2022-11-26T07:42:34.863Z,6.60
2022-11-26T07:45:03.775Z,6.60
2022-11-26T07:47:31.771Z,6.40
2022-11-26T07:50:01.382Z,6.40
2022-11-26T07:52:29.426Z,6.40
2022-11-26T07:54:57.428Z,6.60
2022-11-26T07:57:25.463Z,6.60
2022-11-26T07:59:53.490Z,6.80
2022-11-26T08:02:22.028Z,6.80
2022-11-26T08:04:50.132Z,6.90
2022-11-26T08:07:24.706Z,7.10
2022-11-26T08:09:58.332Z,7.10
2022-11-26T08:12:26.720Z,7.10
2022-11-26T08:14:54.830Z,7.10
2022-11-26T08:17:22.875Z,7.10
2022-11-26T08:19:50.922Z,7.10
2022-11-26T08:22:20.271Z,7.10
2022-11-26T08:24:48.262Z,7.10
2022-11-26T08:27:16.304Z,7.10
2022-11-26T08:29:44.280Z,7.10
2022-11-26T08:32:12.273Z,7.10
2022-11-26T08:34:40.595Z,7.20
2022-11-26T08:37:08.853Z,7.20
2022-11-26T08:39:38.164Z,7.10
2022-11-26T08:42:06.320Z,7.20
2022-11-26T08:44:34.367Z,7.20
2022-11-26T08:47:02.583Z,7.30
2022-11-26T08:49:30.817Z,7.40
2022-11-26T08:51:58.832Z,7.50
2022-11-26T08:54:26.981Z,7.70
2022-11-26T08:56:56.903Z,8.20
2022-11-26T08:59:25.295Z,8.40
2022-11-26T09:01:53.512Z,8.50
2022-11-26T09:04:21.774Z,8.50
2022-11-26T09:06:49.765Z,8.50
2022-11-26T09:09:18.254Z,8.50
2022-11-26T09:11:49.599Z,8.20
2022-11-26T09:14:20.626Z,8.30
2022-11-26T09:16:48.814Z,8.50
2022-11-26T09:19:17.652Z,8.70
2022-11-26T09:21:46.288Z,8.90
2022-11-26T09:24:15.043Z,9.40
2022-11-26T09:26:43.363Z,10.30
2022-11-26T09:29:14.206Z,10.50
2022-11-26T09:32:07.612Z,10.50
2022-11-26T09:34:33.193Z,10.00
2022-11-26T09:37:01.234Z,9.60
2022-11-26T09:39:29.541Z,9.40
2022-11-26T09:42:05.575Z,9.20
2022-11-26T09:44:47.065Z,9.20
2022-11-26T09:47:19.314Z,9.10
2022-11-26T09:49:54.375Z,9.10
2022-11-26T09:52:23.671Z,9.10
2022-11-26T09:54:56.210Z,9.00
2022-11-26T09:57:30.937Z,9.00
2022-11-26T09:59:58.953Z,9.10
2022-11-26T10:02:28.382Z,9.20
2022-11-26T10:04:56.496Z,9.30
2022-11-26T10:07:43.438Z,9.40
2022-11-26T10:10:19.567Z,9.30
2022-11-26T10:15:59.473Z,9.30
2022-11-26T10:18:38.465Z,9.30
2022-11-26T10:21:20.431Z,9.40
2022-11-26T10:24:00.002Z,9.50
2022-11-26T10:26:31.070Z,9.60
2022-11-26T10:29:13.930Z,9.50
2022-11-26T10:31:44.586Z,9.20
2022-11-26T10:34:18.152Z,9.00
2022-11-26T10:36:48.211Z,9.00
2022-11-26T10:39:19.030Z,9.30
2022-11-26T10:41:47.888Z,9.50
2022-11-26T10:44:41.055Z,9.50
2022-11-26T10:47:25.372Z,9.40
2022-11-26T10:49:56.941Z,9.20
2022-11-26T10:52:28.371Z,8.90
2022-11-26T10:55:27.810Z,8.70
2022-11-26T10:58:02.424Z,8.60
2022-11-26T11:00:35.570Z,8.50
2022-11-26T11:03:06.050Z,8.30
2022-11-26T11:05:35.900Z,8.30
2022-11-26T11:08:04.330Z,8.20
2022-11-26T11:10:32.539Z,8.10
2022-11-26T11:13:11.988Z,8.20
2022-11-26T11:15:42.341Z,8.10
2022-11-26T11:18:20.226Z,8.10
2022-11-26T11:20:56.718Z,8.20
2022-11-26T11:23:45.803Z,8.30
2022-11-26T11:26:20.521Z,8.50
2022-11-26T11:28:50.633Z,8.80
2022-11-26T11:31:20.919Z,8.90
2022-11-26T11:33:50.410Z,8.80
2022-11-26T11:36:26.826Z,8.80
2022-11-26T11:38:56.794Z,8.70
2022-11-26T11:41:31.992Z,9.00
2022-11-26T11:44:07.467Z,9.30
2022-11-26T11:47:05.243Z,9.60
2022-11-26T11:50:06.540Z,9.60
2022-11-26T11:52:43.788Z,9.20
2022-11-26T11:55:22.328Z,9.00
2022-11-26T11:58:26.972Z,8.90
2022-11-26T12:00:58.801Z,8.80
2022-11-26T12:03:46.920Z,8.70
2022-11-26T12:06:24.684Z,8.70
2022-11-26T12:09:03.734Z,8.50
2022-11-26T12:11:42.762Z,8.50
2022-11-26T12:14:16.263Z,8.50
2022-11-26T12:16:48.429Z,8.40
2022-11-26T12:19:26.738Z,8.40
2022-11-26T12:22:02.924Z,8.70
2022-11-26T12:24:40.141Z,9.10
2022-11-26T12:27:16.055Z,9.40
2022-11-26T12:29:48.511Z,9.60
2022-11-26T12:32:20.394Z,9.80
2022-11-26T12:34:52.621Z,9.70
2022-11-26T12:37:22.494Z,9.70
2022-11-26T12:39:57.685Z,9.60
2022-11-26T12:42:31.628Z,9.30
2022-11-26T12:45:07.423Z,9.10
2022-11-26T12:47:39.766Z,8.90
2022-11-26T12:50:16.302Z,8.70
2022-11-26T12:52:51.854Z,8.60
2022-11-26T12:55:26.237Z,8.50
2022-11-26T12:57:58.220Z,8.50
2022-11-26T13:00:35.676Z,8.60
2022-11-26T13:03:06.626Z,8.70
2022-11-26T13:05:48.583Z,8.80
2022-11-26T13:08:33.905Z,9.00
2022-11-26T13:11:15.754Z,9.30
2022-11-26T13:13:51.251Z,9.50
2022-11-26T13:16:26.073Z,9.70
2022-11-26T13:18:57.230Z,9.90
2022-11-26T13:21:48.682Z,9.90
2022-11-26T13:24:33.826Z,10.00
2022-11-26T13:27:23.005Z,10.00
2022-11-26T13:30:05.601Z,9.80
2022-11-26T13:33:09.259Z,9.80
2022-11-26T13:36:15.632Z,9.70
2022-11-26T13:38:57.363Z,9.60
2022-11-26T13:41:49.925Z,9.20
2022-11-26T13:44:51.751Z,9.10
2022-11-26T13:47:23.623Z,8.90
2022-11-26T13:49:58.960Z,8.70
2022-11-26T13:52:33.411Z,8.60
2022-11-26T13:55:05.854Z,8.40
2022-11-26T13:57:40.892Z,8.30
2022-11-26T14:00:12.004Z,8.50
2022-11-26T14:02:44.517Z,8.50
2022-11-26T14:05:15.177Z,8.40
2022-11-26T14:07:44.263Z,8.50
2022-11-26T14:10:41.203Z,8.50
2022-11-26T14:13:16.169Z,8.50
2022-11-26T14:16:00.241Z,8.50
2022-11-26T14:19:04.573Z,8.50
2022-11-26T14:21:32.701Z,8.60
2022-11-26T14:24:02.171Z,8.50
2022-11-26T14:26:34.611Z,8.40
2022-11-26T14:29:13.011Z,8.50
2022-11-26T14:31:49.816Z,8.50
2022-11-26T14:34:24.184Z,8.40
2022-11-26T14:36:55.120Z,8.40
2022-11-26T14:39:23.448Z,8.30
2022-11-26T14:42:01.886Z,8.30
2022-11-26T14:44:32.377Z,8.20
2022-11-26T14:47:10.937Z,8.10
2022-11-26T14:49:41.008Z,8.10
2022-11-26T14:52:19.822Z,8.10
2022-11-26T14:54:50.236Z,8.10
2022-11-26T14:57:22.751Z,8.10
2022-11-26T14:59:58.079Z,8.00
2022-11-26T15:02:30.200Z,8.00
2022-11-26T15:05:00.088Z,7.80
2022-11-26T15:07:30.351Z,7.50
2022-11-26T15:10:02.650Z,7.40
2022-11-26T15:12:31.441Z,7.30
2022-11-26T15:15:00.849Z,7.20
2022-11-26T15:17:33.458Z,7.00
2022-11-26T15:20:05.385Z,6.80
2022-11-26T15:22:37.601Z,6.70
2022-11-26T15:25:06.954Z,6.60
2022-11-26T15:27:38.515Z,6.50
2022-11-26T15:30:18.864Z,6.50
2022-11-26T15:32:48.393Z,6.30
2022-11-26T15:35:17.806Z,6.20
2022-11-26T15:37:45.815Z,6.20
2022-11-26T15:40:22.885Z,6.10
2022-11-26T15:42:54.583Z,6.00
2022-11-26T15:45:24.487Z,5.90
2022-11-26T15:47:55.413Z,5.80
2022-11-26T15:50:28.233Z,5.70
2022-11-26T15:52:59.861Z,5.60
2022-11-26T15:55:31.032Z,5.60
2022-11-26T15:58:03.701Z,5.50
2022-11-26T16:00:35.543Z,5.50
2022-11-26T16:03:06.160Z,5.30
2022-11-26T16:05:38.255Z,5.30
2022-11-26T16:08:24.181Z,5.20
2022-11-26T16:10:56.311Z,5.10
2022-11-26T16:13:28.532Z,5.00
2022-11-26T16:16:05.202Z,4.80
2022-11-26T16:18:38.123Z,4.70
2022-11-26T16:21:08.903Z,4.60
2022-11-26T16:23:37.044Z,4.70
2022-11-26T16:26:10.900Z,4.50
2022-11-26T16:28:39.150Z,4.40
2022-11-26T16:31:08.171Z,4.40
2022-11-26T16:33:37.704Z,4.30
2022-11-26T16:36:19.300Z,4.40
2022-11-26T16:38:47.797Z,4.40
2022-11-26T16:41:17.494Z,4.30
2022-11-26T16:43:45.485Z,4.20
2022-11-26T16:46:16.343Z,4.20
2022-11-26T16:48:47.291Z,4.10
2022-11-26T16:51:15.387Z,4.00
2022-11-26T16:53:43.540Z,3.90
2022-11-26T16:56:19.983Z,3.80
2022-11-26T16:58:48.419Z,3.70
2022-11-26T17:01:16.863Z,3.80
2022-11-26T17:03:46.454Z,3.90
2022-11-26T17:06:18.820Z,4.00
2022-11-26T17:08:49.757Z,4.00
2022-11-26T17:11:18.809Z,4.10
2022-11-26T17:13:46.899Z,4.10
2022-11-26T17:16:17.445Z,4.20
2022-11-26T17:18:47.260Z,4.20
2022-11-26T17:21:15.705Z,4.20
2022-11-26T17:23:43.966Z,4.20
2022-11-26T17:26:20.581Z,4.10
2022-11-26T17:28:49.218Z,4.10
2022-11-26T17:31:19.965Z,4.00
2022-11-26T17:33:50.629Z,3.90
2022-11-26T17:36:21.352Z,3.90
2022-11-26T17:38:50.119Z,3.80
2022-11-26T17:41:18.168Z,3.60
2022-11-26T17:43:46.265Z,3.50
2022-11-26T17:46:16.938Z,3.40
2022-11-26T17:48:45.311Z,3.40
2022-11-26T17:51:15.383Z,3.30
2022-11-26T17:53:44.353Z,3.20
2022-11-26T17:56:18.182Z,3.10
2022-11-26T17:58:46.674Z,3.10
2022-11-26T18:01:17.064Z,3.10
2022-11-26T18:03:45.544Z,3.00
2022-11-26T18:06:17.939Z,3.00
2022-11-26T18:08:47.022Z,2.90
2022-11-26T18:11:17.661Z,2.90
2022-11-26T18:13:46.116Z,2.90
2022-11-26T18:16:14.280Z,2.70
2022-11-26T18:18:42.367Z,2.70
2022-11-26T18:21:10.358Z,2.70
2022-11-26T18:23:41.289Z,2.60
2022-11-26T18:26:17.229Z,2.60
2022-11-26T18:28:45.231Z,2.70
2022-11-26T18:31:13.526Z,2.80
2022-11-26T18:33:41.781Z,2.50
2022-11-26T18:36:10.343Z,2.40
2022-11-26T18:38:40.045Z,2.30
2022-11-26T18:41:08.548Z,2.30
2022-11-26T18:43:38.756Z,2.30
2022-11-26T18:46:11.420Z,2.20
2022-11-26T18:48:40.124Z,2.10
2022-11-26T18:51:08.123Z,2.00
2022-11-26T18:53:36.726Z,2.00
2022-11-26T18:56:10.385Z,2.00
2022-11-26T18:58:38.342Z,1.90
2022-11-26T19:01:14.112Z,1.80
2022-11-26T19:03:44.006Z,1.70
2022-11-26T19:06:15.250Z,1.80
2022-11-26T19:08:43.546Z,1.80
2022-11-26T19:11:14.764Z,1.80
2022-11-26T19:13:43.196Z,1.80
2022-11-26T19:16:16.560Z,1.60
2022-11-26T19:18:46.037Z,1.50
2022-11-26T19:21:19.679Z,1.50
2022-11-26T19:23:48.102Z,1.50
2022-11-26T19:26:17.906Z,1.50
2022-11-26T19:28:46.213Z,1.30
2022-11-26T19:31:16.428Z,1.20
2022-11-26T19:33:46.240Z,1.20
2022-11-26T19:36:16.114Z,1.20
2022-11-26T19:38:44.827Z,1.20
2022-11-26T19:41:13.822Z,1.20
2022-11-26T19:43:43.687Z,1.30
2022-11-26T19:46:13.479Z,1.50
2022-11-26T19:48:43.431Z,1.40
2022-11-26T19:51:12.508Z,1.40
2022-11-26T19:53:41.071Z,1.50
2022-11-26T19:56:12.583Z,1.60
2022-11-26T19:58:40.583Z,1.60
2022-11-26T20:01:16.862Z,1.60
2022-11-26T20:03:45.613Z,1.60
2022-11-26T20:06:18.937Z,1.70
2022-11-26T20:08:47.655Z,1.60
2022-11-26T20:11:16.952Z,1.60
2022-11-26T20:13:46.564Z,1.60
2022-11-26T20:16:18.488Z,1.50
2022-11-26T20:18:46.923Z,1.50
2022-11-26T20:21:16.760Z,1.60
2022-11-26T20:23:44.752Z,1.50
2022-11-26T20:26:18.236Z,1.40
2022-11-26T20:28:46.589Z,1.40
2022-11-26T20:31:20.678Z,1.40
2022-11-26T20:33:50.349Z,1.40
2022-11-26T20:36:20.733Z,1.40
2022-11-26T20:38:52.128Z,1.40
2022-11-26T20:41:20.387Z,1.40
2022-11-26T20:43:49.653Z,1.40
2022-11-26T20:46:22.123Z,1.40
2022-11-26T20:48:50.298Z,1.40
2022-11-26T20:51:21.754Z,1.40
2022-11-26T20:53:50.917Z,1.30
2022-11-26T20:56:20.732Z,1.30
2022-11-26T20:58:49.569Z,1.40
2022-11-26T21:01:21.580Z,1.30
2022-11-26T21:03:50.101Z,1.30
2022-11-26T21:06:24.477Z,1.30
2022-11-26T21:08:57.417Z,1.40
2022-11-26T21:11:25.504Z,1.40
2022-11-26T21:13:53.455Z,1.30
2022-11-26T21:16:23.346Z,1.30
2022-11-26T21:18:53.624Z,1.30
2022-11-26T21:21:22.370Z,1.20
2022-11-26T21:23:50.745Z,1.20
2022-11-26T21:26:21.308Z,1.10
2022-11-26T21:28:52.456Z,1.10
2022-11-26T21:31:22.783Z,1.00
2022-11-26T21:33:56.677Z,1.00
2022-11-26T21:36:25.289Z,1.00
2022-11-26T21:38:53.226Z,1.00
2022-11-26T21:41:21.988Z,1.00
2022-11-26T21:43:50.633Z,1.00
2022-11-26T21:46:20.245Z,1.10
2022-11-26T21:48:49.669Z,1.20
2022-11-26T21:51:19.135Z,1.20
2022-11-26T21:53:49.631Z,1.20
2022-11-26T21:56:19.198Z,1.20
2022-11-26T21:58:47.514Z,1.20
2022-11-26T22:01:17.875Z,1.20
2022-11-26T22:03:49.949Z,1.10
2022-11-26T22:06:18.698Z,1.00
2022-11-26T22:08:47.517Z,1.00
2022-11-26T22:11:18.494Z,1.10
2022-11-26T22:13:46.548Z,1.10
2022-11-26T22:16:16.352Z,1.20
2022-11-26T22:18:46.012Z,1.20
2022-11-26T22:21:18.337Z,1.20
2022-11-26T22:23:46.930Z,0.90
2022-11-26T22:26:16.530Z,0.90
2022-11-26T22:28:44.575Z,0.90
2022-11-26T22:31:15.011Z,0.80
2022-11-26T22:33:43.123Z,0.80
2022-11-26T22:36:11.757Z,0.70
2022-11-26T22:38:42.440Z,0.60
2022-11-26T22:41:14.241Z,0.60
2022-11-26T22:43:42.852Z,0.50
2022-11-26T22:46:13.336Z,0.60
2022-11-26T22:48:41.849Z,0.50
2022-11-26T22:51:10.483Z,0.50
2022-11-26T22:53:38.611Z,0.40
2022-11-26T22:56:08.905Z,0.30
2022-11-26T22:58:37.082Z,0.30
2022-11-26T23:01:08.173Z,0.40
2022-11-26T23:03:38.104Z,0.30
2022-11-26T23:06:08.691Z,0.30
2022-11-26T23:08:37.356Z,0.30
2022-11-26T23:11:18.087Z,0.30
2022-11-26T23:13:47.519Z,0.40
2022-11-26T23:16:15.792Z,0.50
2022-11-26T23:18:44.421Z,0.50
2022-11-26T23:21:14.029Z,0.50
2022-11-26T23:23:42.644Z,0.50
2022-11-26T23:26:20.406Z,0.60
2022-11-26T23:28:51.726Z,0.70
2022-11-26T23:31:21.620Z,0.70
2022-11-26T23:33:50.652Z,0.70
2022-11-26T23:36:18.998Z,0.70
2022-11-26T23:38:47.512Z,0.60
2022-11-26T23:41:17.032Z,0.60
2022-11-26T23:43:45.563Z,0.60
2022-11-26T23:46:16.164Z,0.60
2022-11-26T23:48:44.595Z,0.60
2022-11-26T23:51:18.107Z,0.60
2022-11-26T23:53:47.420Z,0.60
2022-11-26T23:56:19.070Z,0.50
2022-11-26T23:58:49.633Z,0.60
